Tyrone, New York
Current Conditions -  °F | °C
As of 4:53 AM on Sunday 23 Nov 2014 (Local Time) from KPEO Reporting Station
Overcast Overcast  
Wind Chill:   Ceiling: 3400
Heat Index:   Visibility: 10mi
Dew Point:   Wind: 12mph
Humidity: 66%   Direction: 220°SW
Pressure: 30.03"   Gusts: NA
Location:  42.41°N, 77.06°W
Report Text: KPEO 230953Z AUTO 22010KT 10SM OVC034 09/03 A3003 RMK AO2 SLP174 T00940033
Loading
Personal Weather Stations






























Interactive Weather Map New forecast layout! Learn more

10-Day Weather Forecast

Advertisements
Track Severe Weather on mobile